KLM21J EDDN-EHRD
Flight info
| Callsign | KLM21J |
|---|---|
| Flight time | 1h 21m |
| Altitude | 27000 |
| Route | SULUS1G/28 SULUS L604 RELBI L602 RKN |
| Aircraft | E190/M-SDE3GILORVW/S |
Departure
| Time | 2026-05-06 13:51 |
|---|---|
| Airport | Nuremberg Airport (EDDN) |
Arrival
| Time | 2026-05-06 15:12 |
|---|---|
| Airport | Rotterdam The Hague Airport (EHRD) |
| Time | Latitude | Longitude | Altitude | Speed | Heading |
|---|---|---|---|---|---|
| 2026-05-06 13:33 | 49.49490 | 11.08107 | 1027 ft | 0 kts | 189° |
| 2026-05-06 13:44 | 49.49501 | 11.08109 | 1027 ft | 4 kts | 187° |
| 2026-05-06 13:44 | 49.49528 | 11.08112 | 1028 ft | 4 kts | 173° |
| 2026-05-06 13:45 | 49.49551 | 11.08100 | 1028 ft | 4 kts | 122° |
| 2026-05-06 13:45 | 49.49555 | 11.08089 | 1028 ft | 0 kts | 99° |
| 2026-05-06 13:47 | 49.49555 | 11.08090 | 1029 ft | 1 kts | 99° |
| 2026-05-06 13:47 | 49.49551 | 11.08126 | 1028 ft | 7 kts | 99° |
| 2026-05-06 13:47 | 49.49541 | 11.08235 | 1029 ft | 9 kts | 94° |
| 2026-05-06 13:47 | 49.49542 | 11.08331 | 1031 ft | 9 kts | 65° |
| 2026-05-06 13:48 | 49.49602 | 11.08380 | 1030 ft | 12 kts | 37° |
| 2026-05-06 13:48 | 49.49608 | 11.08505 | 1031 ft | 13 kts | 101° |
| 2026-05-06 13:48 | 49.49593 | 11.08649 | 1033 ft | 15 kts | 96° |
| 2026-05-06 13:48 | 49.49578 | 11.08814 | 1035 ft | 16 kts | 98° |
| 2026-05-06 13:49 | 49.49561 | 11.08994 | 1036 ft | 18 kts | 98° |
| 2026-05-06 13:49 | 49.49542 | 11.09199 | 1038 ft | 20 kts | 98° |
| 2026-05-06 13:49 | 49.49557 | 11.09405 | 1041 ft | 20 kts | 55° |
| 2026-05-06 13:49 | 49.49645 | 11.09564 | 1043 ft | 18 kts | 21° |
| 2026-05-06 13:50 | 49.49705 | 11.09469 | 1042 ft | 7 kts | 276° |
| 2026-05-06 13:50 | 49.49706 | 11.09461 | 1042 ft | 3 kts | 278° |
| 2026-05-06 13:50 | 49.49729 | 11.09226 | 1041 ft | 64 kts | 279° |
| 2026-05-06 13:50 | 49.49857 | 11.08042 | 1126 ft | 149 kts | 282° |
| 2026-05-06 13:51 | 49.50017 | 11.06343 | 2063 ft | 173 kts | 277° |
| 2026-05-06 13:51 | 49.50179 | 11.04350 | 2967 ft | 201 kts | 276° |
| 2026-05-06 13:51 | 49.50355 | 11.02071 | 3919 ft | 232 kts | 276° |
| 2026-05-06 13:51 | 49.50587 | 10.99516 | 5248 ft | 244 kts | 276° |
| 2026-05-06 13:52 | 49.50861 | 10.96742 | 6318 ft | 272 kts | 282° |
| 2026-05-06 13:52 | 49.51652 | 10.94031 | 6876 ft | 282 kts | 305° |
| 2026-05-06 13:52 | 49.53198 | 10.92239 | 6936 ft | 285 kts | 337° |
| 2026-05-06 13:52 | 49.55166 | 10.91828 | 6920 ft | 286 kts | 0° |
| 2026-05-06 13:53 | 49.57152 | 10.92120 | 7203 ft | 287 kts | 8° |
| 2026-05-06 13:53 | 49.59148 | 10.92526 | 8671 ft | 292 kts | 5° |
| 2026-05-06 13:53 | 49.61180 | 10.92739 | 9930 ft | 302 kts | 1° |
| 2026-05-06 13:53 | 49.63360 | 10.92875 | 10885 ft | 319 kts | 0° |
| 2026-05-06 13:54 | 49.65643 | 10.92920 | 11645 ft | 336 kts | 358° |
| 2026-05-06 13:54 | 49.68000 | 10.92905 | 12677 ft | 341 kts | 358° |
| 2026-05-06 13:54 | 49.69584 | 10.92868 | 13399 ft | 343 kts | 355° |
| 2026-05-06 13:54 | 49.71940 | 10.92171 | 14244 ft | 346 kts | 342° |
| 2026-05-06 13:55 | 49.74241 | 10.91037 | 15117 ft | 349 kts | 338° |
| 2026-05-06 13:55 | 49.77272 | 10.89274 | 16265 ft | 352 kts | 336° |
| 2026-05-06 13:55 | 49.78828 | 10.88364 | 16772 ft | 356 kts | 337° |
| 2026-05-06 13:55 | 49.81945 | 10.86629 | 17713 ft | 362 kts | 338° |
| 2026-05-06 13:56 | 49.83561 | 10.85771 | 18169 ft | 365 kts | 339° |
| 2026-05-06 13:56 | 49.85981 | 10.84504 | 18752 ft | 368 kts | 339° |
| 2026-05-06 13:56 | 49.88417 | 10.83224 | 19297 ft | 371 kts | 339° |
| 2026-05-06 13:56 | 49.90836 | 10.81933 | 19809 ft | 375 kts | 339° |
| 2026-05-06 13:57 | 49.93309 | 10.80598 | 20332 ft | 377 kts | 338° |
| 2026-05-06 13:57 | 49.95795 | 10.79246 | 20811 ft | 380 kts | 338° |
| 2026-05-06 13:57 | 49.98297 | 10.77885 | 21287 ft | 382 kts | 338° |
| 2026-05-06 13:57 | 50.00823 | 10.76511 | 21732 ft | 383 kts | 338° |
| 2026-05-06 13:58 | 50.03337 | 10.75145 | 21855 ft | 375 kts | 339° |
| 2026-05-06 13:58 | 50.05739 | 10.73839 | 21790 ft | 361 kts | 338° |
| 2026-05-06 13:58 | 50.07998 | 10.72156 | 22331 ft | 359 kts | 324° |
| 2026-05-06 13:58 | 50.09922 | 10.69662 | 22723 ft | 362 kts | 312° |
| 2026-05-06 13:59 | 50.11655 | 10.66774 | 22970 ft | 369 kts | 309° |
| 2026-05-06 13:59 | 50.13369 | 10.63719 | 23041 ft | 379 kts | 308° |
| 2026-05-06 13:59 | 50.15104 | 10.60590 | 23221 ft | 385 kts | 308° |
| 2026-05-06 13:59 | 50.16881 | 10.57450 | 23593 ft | 382 kts | 309° |
| 2026-05-06 14:00 | 50.18667 | 10.54422 | 24071 ft | 378 kts | 310° |
| 2026-05-06 14:00 | 50.20477 | 10.51502 | 24233 ft | 382 kts | 311° |
| 2026-05-06 14:00 | 50.22347 | 10.48525 | 24415 ft | 384 kts | 310° |
| 2026-05-06 14:00 | 50.24215 | 10.45531 | 24608 ft | 386 kts | 310° |
| 2026-05-06 14:01 | 50.26093 | 10.42528 | 24803 ft | 388 kts | 310° |
| 2026-05-06 14:01 | 50.27983 | 10.39497 | 24987 ft | 389 kts | 310° |
| 2026-05-06 14:01 | 50.29870 | 10.36456 | 25152 ft | 391 kts | 310° |
| 2026-05-06 14:01 | 50.31771 | 10.33387 | 25294 ft | 393 kts | 310° |
| 2026-05-06 14:02 | 50.33677 | 10.30309 | 25440 ft | 394 kts | 310° |
| 2026-05-06 14:02 | 50.35589 | 10.27212 | 25586 ft | 395 kts | 309° |
| 2026-05-06 14:02 | 50.37386 | 10.24036 | 25867 ft | 386 kts | 306° |
| 2026-05-06 14:02 | 50.39091 | 10.20729 | 25785 ft | 394 kts | 304° |
| 2026-05-06 14:03 | 50.40823 | 10.17417 | 25732 ft | 391 kts | 306° |
| 2026-05-06 14:03 | 50.42613 | 10.14191 | 25735 ft | 394 kts | 308° |
| 2026-05-06 14:03 | 50.44450 | 10.11005 | 25734 ft | 390 kts | 308° |
| 2026-05-06 14:03 | 50.46252 | 10.07901 | 26251 ft | 378 kts | 307° |
| 2026-05-06 14:04 | 50.48000 | 10.04839 | 26649 ft | 375 kts | 307° |
| 2026-05-06 14:04 | 50.49723 | 10.01758 | 26872 ft | 376 kts | 306° |
| 2026-05-06 14:04 | 50.51449 | 9.98638 | 26932 ft | 382 kts | 306° |
| 2026-05-06 14:04 | 50.53204 | 9.95470 | 26944 ft | 387 kts | 306° |
| 2026-05-06 14:05 | 50.54991 | 9.92266 | 26947 ft | 392 kts | 306° |
| 2026-05-06 14:05 | 50.56808 | 9.89022 | 26964 ft | 396 kts | 307° |
| 2026-05-06 14:05 | 50.58631 | 9.85767 | 26971 ft | 399 kts | 307° |
| 2026-05-06 14:05 | 50.60440 | 9.82536 | 26554 ft | 375 kts | 307° |
| 2026-05-06 14:06 | 50.62129 | 9.79532 | 26820 ft | 370 kts | 307° |
| 2026-05-06 14:06 | 50.63834 | 9.76461 | 26814 ft | 377 kts | 306° |
| 2026-05-06 14:06 | 50.65551 | 9.73342 | 27052 ft | 377 kts | 306° |
| 2026-05-06 14:06 | 50.67291 | 9.70187 | 27028 ft | 383 kts | 306° |
| 2026-05-06 14:07 | 50.69057 | 9.66992 | 27021 ft | 388 kts | 307° |
| 2026-05-06 14:07 | 50.70840 | 9.63773 | 27011 ft | 392 kts | 307° |
| 2026-05-06 14:07 | 50.72644 | 9.60513 | 27006 ft | 396 kts | 307° |
| 2026-05-06 14:07 | 50.74454 | 9.57205 | 27001 ft | 399 kts | 306° |
| 2026-05-06 14:08 | 50.76220 | 9.53819 | 27005 ft | 400 kts | 304° |
| 2026-05-06 14:08 | 50.76808 | 9.52664 | 27023 ft | 399 kts | 304° |
| 2026-05-06 14:08 | 50.78409 | 9.49500 | 27059 ft | 399 kts | 304° |
| 2026-05-06 14:08 | 50.80161 | 9.46060 | 27061 ft | 401 kts | 304° |
| 2026-05-06 14:09 | 50.81905 | 9.42678 | 27049 ft | 402 kts | 305° |
| 2026-05-06 14:09 | 50.83704 | 9.39215 | 27079 ft | 403 kts | 305° |
| 2026-05-06 14:09 | 50.85466 | 9.35822 | 27081 ft | 404 kts | 305° |
| 2026-05-06 14:09 | 50.87248 | 9.32375 | 27072 ft | 404 kts | 304° |
| 2026-05-06 14:10 | 50.89030 | 9.28910 | 27068 ft | 405 kts | 304° |
| 2026-05-06 14:10 | 50.90807 | 9.25446 | 27060 ft | 406 kts | 304° |
| 2026-05-06 14:10 | 50.92586 | 9.21976 | 27055 ft | 407 kts | 304° |
| 2026-05-06 14:10 | 50.94090 | 9.19044 | 27074 ft | 406 kts | 304° |
| 2026-05-06 14:11 | 50.94613 | 9.18025 | 27105 ft | 406 kts | 304° |
| 2026-05-06 14:11 | 50.94842 | 9.17578 | 27122 ft | 406 kts | 304° |
| 2026-05-06 14:11 | 50.95481 | 9.16332 | 27018 ft | 408 kts | 304° |
| 2026-05-06 14:12 | 50.95685 | 9.15933 | 27023 ft | 408 kts | 304° |
| 2026-05-06 14:12 | 50.97459 | 9.12464 | 27077 ft | 406 kts | 304° |
| 2026-05-06 14:12 | 50.99239 | 9.08975 | 27095 ft | 407 kts | 304° |
| 2026-05-06 14:12 | 51.01021 | 9.05479 | 27094 ft | 407 kts | 304° |
| 2026-05-06 14:13 | 51.02805 | 9.01981 | 27093 ft | 407 kts | 304° |
| 2026-05-06 14:13 | 51.04590 | 8.98474 | 27100 ft | 407 kts | 304° |
| 2026-05-06 14:13 | 51.06368 | 8.94974 | 27090 ft | 407 kts | 304° |
| 2026-05-06 14:13 | 51.08127 | 8.91507 | 27091 ft | 408 kts | 304° |
| 2026-05-06 14:14 | 51.09935 | 8.87942 | 27086 ft | 407 kts | 304° |
| 2026-05-06 14:14 | 51.11691 | 8.84475 | 27074 ft | 407 kts | 304° |
| 2026-05-06 14:14 | 51.13468 | 8.80955 | 27070 ft | 408 kts | 304° |
| 2026-05-06 14:14 | 51.15249 | 8.77436 | 27065 ft | 408 kts | 304° |
| 2026-05-06 14:15 | 51.17034 | 8.73930 | 27074 ft | 408 kts | 305° |
| 2026-05-06 14:15 | 51.18828 | 8.70420 | 27071 ft | 408 kts | 305° |
| 2026-05-06 14:15 | 51.20619 | 8.66909 | 27082 ft | 408 kts | 304° |
| 2026-05-06 14:15 | 51.22404 | 8.63395 | 27078 ft | 408 kts | 304° |
| 2026-05-06 14:16 | 51.24188 | 8.59867 | 27075 ft | 408 kts | 304° |
| 2026-05-06 14:16 | 51.25923 | 8.56428 | 27080 ft | 409 kts | 306° |
| 2026-05-06 14:16 | 51.27722 | 8.52861 | 27067 ft | 410 kts | 307° |
| 2026-05-06 14:16 | 51.29516 | 8.49312 | 27078 ft | 411 kts | 308° |
| 2026-05-06 14:17 | 51.31301 | 8.45775 | 27078 ft | 411 kts | 308° |
| 2026-05-06 14:17 | 51.33098 | 8.42208 | 27136 ft | 414 kts | 307° |
| 2026-05-06 14:17 | 51.34868 | 8.38671 | 27176 ft | 389 kts | 307° |
| 2026-05-06 14:17 | 51.36463 | 8.35475 | 27032 ft | 350 kts | 307° |
| 2026-05-06 14:18 | 51.37926 | 8.32533 | 26768 ft | 333 kts | 307° |
| 2026-05-06 14:18 | 51.39405 | 8.29533 | 26508 ft | 355 kts | 307° |
| 2026-05-06 14:18 | 51.40973 | 8.26346 | 26251 ft | 372 kts | 307° |
| 2026-05-06 14:18 | 51.42613 | 8.23037 | 26005 ft | 385 kts | 307° |
| 2026-05-06 14:19 | 51.44309 | 8.19628 | 25732 ft | 395 kts | 307° |
| 2026-05-06 14:19 | 51.45999 | 8.16227 | 25522 ft | 396 kts | 307° |
| 2026-05-06 14:19 | 51.47701 | 8.12791 | 25261 ft | 387 kts | 307° |
| 2026-05-06 14:19 | 51.49329 | 8.09499 | 25013 ft | 367 kts | 307° |
| 2026-05-06 14:20 | 51.50880 | 8.06352 | 24774 ft | 353 kts | 307° |
| 2026-05-06 14:20 | 51.52413 | 8.03231 | 24542 ft | 359 kts | 307° |
| 2026-05-06 14:20 | 51.53965 | 8.00066 | 24306 ft | 359 kts | 307° |
| 2026-05-06 14:20 | 51.55498 | 7.96942 | 24066 ft | 353 kts | 307° |
| 2026-05-06 14:21 | 51.57011 | 7.93859 | 23829 ft | 352 kts | 307° |
| 2026-05-06 14:21 | 51.58524 | 7.90771 | 23599 ft | 352 kts | 307° |
| 2026-05-06 14:21 | 51.60040 | 7.87675 | 23355 ft | 351 kts | 307° |
| 2026-05-06 14:21 | 51.61543 | 7.84598 | 23071 ft | 349 kts | 307° |
| 2026-05-06 14:22 | 51.63040 | 7.81527 | 22804 ft | 347 kts | 307° |
| 2026-05-06 14:22 | 51.64520 | 7.78487 | 22526 ft | 346 kts | 306° |
| 2026-05-06 14:22 | 51.66003 | 7.75443 | 22244 ft | 344 kts | 306° |
| 2026-05-06 14:22 | 51.67484 | 7.72399 | 21986 ft | 344 kts | 306° |
| 2026-05-06 14:23 | 51.68956 | 7.69371 | 21721 ft | 343 kts | 306° |
| 2026-05-06 14:23 | 51.70420 | 7.66355 | 21460 ft | 341 kts | 307° |
| 2026-05-06 14:23 | 51.71878 | 7.63345 | 21195 ft | 340 kts | 306° |
| 2026-05-06 14:23 | 51.73329 | 7.60344 | 20932 ft | 338 kts | 306° |
| 2026-05-06 14:24 | 51.74769 | 7.57368 | 20686 ft | 336 kts | 306° |
| 2026-05-06 14:24 | 51.76206 | 7.54393 | 20426 ft | 335 kts | 306° |
| 2026-05-06 14:24 | 51.77635 | 7.51432 | 20182 ft | 334 kts | 307° |
| 2026-05-06 14:24 | 51.79061 | 7.48475 | 19933 ft | 334 kts | 307° |
| 2026-05-06 14:25 | 51.80465 | 7.45557 | 19702 ft | 332 kts | 306° |
| 2026-05-06 14:25 | 51.81866 | 7.42604 | 19455 ft | 329 kts | 306° |
| 2026-05-06 14:25 | 51.83253 | 7.39674 | 19211 ft | 326 kts | 307° |
| 2026-05-06 14:25 | 51.84639 | 7.36812 | 18968 ft | 322 kts | 307° |
| 2026-05-06 14:26 | 51.86027 | 7.33965 | 18736 ft | 322 kts | 307° |
| 2026-05-06 14:26 | 51.87402 | 7.31117 | 18498 ft | 319 kts | 307° |
| 2026-05-06 14:26 | 51.88763 | 7.28276 | 18266 ft | 322 kts | 307° |
| 2026-05-06 14:26 | 51.90121 | 7.25404 | 17997 ft | 317 kts | 306° |
| 2026-05-06 14:27 | 51.91456 | 7.22595 | 17737 ft | 316 kts | 307° |
| 2026-05-06 14:27 | 51.92810 | 7.19762 | 17474 ft | 319 kts | 307° |
| 2026-05-06 14:27 | 51.94171 | 7.16907 | 17203 ft | 319 kts | 307° |
| 2026-05-06 14:27 | 51.95514 | 7.14084 | 16942 ft | 317 kts | 307° |
| 2026-05-06 14:28 | 51.96857 | 7.11252 | 16689 ft | 316 kts | 307° |
| 2026-05-06 14:28 | 51.98197 | 7.08424 | 16431 ft | 314 kts | 307° |
| 2026-05-06 14:28 | 51.99531 | 7.05609 | 16165 ft | 313 kts | 307° |
| 2026-05-06 14:28 | 52.00854 | 7.02815 | 15904 ft | 310 kts | 307° |
| 2026-05-06 14:29 | 52.02165 | 7.00041 | 15648 ft | 310 kts | 307° |
| 2026-05-06 14:29 | 52.03479 | 6.97262 | 15398 ft | 309 kts | 307° |
| 2026-05-06 14:29 | 52.04781 | 6.94503 | 15137 ft | 307 kts | 307° |
| 2026-05-06 14:29 | 52.06069 | 6.91769 | 14904 ft | 308 kts | 307° |
| 2026-05-06 14:30 | 52.07366 | 6.89013 | 14656 ft | 307 kts | 307° |
| 2026-05-06 14:30 | 52.08646 | 6.86287 | 14430 ft | 304 kts | 308° |
| 2026-05-06 14:30 | 52.09918 | 6.83579 | 14177 ft | 297 kts | 308° |
| 2026-05-06 14:30 | 52.11167 | 6.80922 | 13939 ft | 296 kts | 308° |
| 2026-05-06 14:31 | 52.12404 | 6.78252 | 13693 ft | 293 kts | 306° |
| 2026-05-06 14:31 | 52.13467 | 6.75421 | 13421 ft | 293 kts | 299° |
| 2026-05-06 14:31 | 52.14307 | 6.72399 | 13158 ft | 294 kts | 293° |
| 2026-05-06 14:31 | 52.14925 | 6.69213 | 12896 ft | 297 kts | 285° |
| 2026-05-06 14:32 | 52.15295 | 6.65901 | 12633 ft | 297 kts | 278° |
| 2026-05-06 14:32 | 52.15377 | 6.62552 | 12371 ft | 297 kts | 271° |
| 2026-05-06 14:32 | 52.15215 | 6.59192 | 12111 ft | 298 kts | 264° |
| 2026-05-06 14:32 | 52.14799 | 6.55892 | 11853 ft | 298 kts | 257° |
| 2026-05-06 14:33 | 52.14144 | 6.52673 | 11600 ft | 306 kts | 250° |
| 2026-05-06 14:33 | 52.13187 | 6.49246 | 11357 ft | 357 kts | 245° |
| 2026-05-06 14:33 | 52.11955 | 6.45614 | 11102 ft | 365 kts | 241° |
| 2026-05-06 14:33 | 52.10557 | 6.42166 | 10850 ft | 368 kts | 236° |
| 2026-05-06 14:34 | 52.09041 | 6.38797 | 10593 ft | 368 kts | 234° |
| 2026-05-06 14:34 | 52.07495 | 6.35480 | 10349 ft | 366 kts | 233° |
| 2026-05-06 14:34 | 52.05955 | 6.32201 | 10105 ft | 365 kts | 233° |
| 2026-05-06 14:34 | 52.04431 | 6.28975 | 9925 ft | 354 kts | 233° |
| 2026-05-06 14:35 | 52.02994 | 6.25950 | 9716 ft | 332 kts | 233° |
| 2026-05-06 14:35 | 52.01585 | 6.22981 | 9403 ft | 328 kts | 233° |
| 2026-05-06 14:35 | 52.00194 | 6.20051 | 9141 ft | 328 kts | 233° |
| 2026-05-06 14:35 | 51.98807 | 6.17136 | 8885 ft | 324 kts | 233° |
| 2026-05-06 14:36 | 51.97438 | 6.14259 | 8630 ft | 327 kts | 233° |
| 2026-05-06 14:36 | 51.96044 | 6.11296 | 8361 ft | 328 kts | 233° |
| 2026-05-06 14:36 | 51.94657 | 6.08387 | 8107 ft | 323 kts | 233° |
| 2026-05-06 14:36 | 51.93294 | 6.05543 | 7854 ft | 323 kts | 232° |
| 2026-05-06 14:37 | 51.91914 | 6.02684 | 7591 ft | 323 kts | 232° |
| 2026-05-06 14:37 | 51.90528 | 5.99828 | 7342 ft | 322 kts | 232° |
| 2026-05-06 14:37 | 51.89134 | 5.96962 | 7111 ft | 323 kts | 233° |
| 2026-05-06 14:37 | 51.87760 | 5.94131 | 6864 ft | 321 kts | 233° |
| 2026-05-06 14:38 | 51.86398 | 5.91305 | 6658 ft | 318 kts | 233° |
| 2026-05-06 14:38 | 51.85021 | 5.88527 | 6497 ft | 311 kts | 232° |
| 2026-05-06 14:38 | 51.83678 | 5.85843 | 6345 ft | 306 kts | 232° |
| 2026-05-06 14:38 | 51.82331 | 5.83153 | 6141 ft | 303 kts | 232° |
| 2026-05-06 14:39 | 51.81001 | 5.80524 | 5987 ft | 302 kts | 231° |
| 2026-05-06 14:39 | 51.79672 | 5.77907 | 5894 ft | 305 kts | 232° |
| 2026-05-06 14:39 | 51.78370 | 5.75210 | 5805 ft | 302 kts | 237° |
| 2026-05-06 14:39 | 51.77424 | 5.72192 | 5702 ft | 300 kts | 251° |
| 2026-05-06 14:40 | 51.76879 | 5.68987 | 5569 ft | 296 kts | 259° |
| 2026-05-06 14:40 | 51.76390 | 5.65796 | 5483 ft | 298 kts | 257° |
| 2026-05-06 14:40 | 51.75847 | 5.62591 | 5392 ft | 293 kts | 255° |
| 2026-05-06 14:40 | 51.75124 | 5.59515 | 5282 ft | 293 kts | 248° |
| 2026-05-06 14:41 | 51.74164 | 5.56650 | 5158 ft | 290 kts | 239° |
| 2026-05-06 14:41 | 51.72963 | 5.54027 | 5050 ft | 293 kts | 232° |
| 2026-05-06 14:41 | 51.71576 | 5.51524 | 5130 ft | 305 kts | 228° |
| 2026-05-06 14:41 | 51.70192 | 5.48980 | 6074 ft | 308 kts | 232° |
| 2026-05-06 14:42 | 51.68852 | 5.46202 | 5972 ft | 316 kts | 234° |
| 2026-05-06 14:42 | 51.67529 | 5.43335 | 4993 ft | 320 kts | 237° |
| 2026-05-06 14:42 | 51.66764 | 5.41392 | 5045 ft | 298 kts | 244° |
| 2026-05-06 14:42 | 51.66025 | 5.38353 | 5964 ft | 299 kts | 256° |
| 2026-05-06 14:43 | 51.65674 | 5.34996 | 5715 ft | 305 kts | 268° |
| 2026-05-06 14:43 | 51.65780 | 5.31634 | 5043 ft | 284 kts | 282° |
| 2026-05-06 14:43 | 51.66110 | 5.28712 | 5396 ft | 257 kts | 283° |
| 2026-05-06 14:43 | 51.66415 | 5.25874 | 5395 ft | 255 kts | 283° |
| 2026-05-06 14:44 | 51.66702 | 5.23145 | 5660 ft | 246 kts | 282° |
| 2026-05-06 14:44 | 51.67019 | 5.20269 | 5549 ft | 267 kts | 283° |
| 2026-05-06 14:44 | 51.67345 | 5.17340 | 5300 ft | 261 kts | 283° |
| 2026-05-06 14:45 | 51.67887 | 5.12169 | 5836 ft | 219 kts | 282° |
| 2026-05-06 14:45 | 51.68127 | 5.09786 | 5892 ft | 215 kts | 282° |
| 2026-05-06 14:45 | 51.68380 | 5.07334 | 5940 ft | 227 kts | 282° |
| 2026-05-06 14:45 | 51.68659 | 5.04714 | 6088 ft | 256 kts | 282° |
| 2026-05-06 14:46 | 51.68973 | 5.01808 | 6148 ft | 267 kts | 283° |
| 2026-05-06 14:46 | 51.69302 | 4.98841 | 5913 ft | 269 kts | 282° |
| 2026-05-06 14:46 | 51.69610 | 4.95945 | 5992 ft | 261 kts | 282° |
| 2026-05-06 14:46 | 51.69931 | 4.93021 | 6005 ft | 266 kts | 283° |
| 2026-05-06 14:47 | 51.70253 | 4.90064 | 6011 ft | 259 kts | 282° |
| 2026-05-06 14:47 | 51.70548 | 4.87347 | 6010 ft | 241 kts | 282° |
| 2026-05-06 14:47 | 51.70823 | 4.84760 | 5909 ft | 228 kts | 282° |
| 2026-05-06 14:47 | 51.71079 | 4.82298 | 5843 ft | 219 kts | 283° |
| 2026-05-06 14:48 | 51.71325 | 4.79827 | 5827 ft | 223 kts | 283° |
| 2026-05-06 14:48 | 51.71594 | 4.77186 | 5250 ft | 248 kts | 282° |
| 2026-05-06 14:48 | 51.71888 | 4.74423 | 4738 ft | 252 kts | 282° |
| 2026-05-06 14:48 | 51.72185 | 4.71616 | 4230 ft | 255 kts | 282° |
| 2026-05-06 14:49 | 51.72475 | 4.68795 | 3712 ft | 257 kts | 282° |
| 2026-05-06 14:49 | 51.72756 | 4.65943 | 3207 ft | 257 kts | 282° |
| 2026-05-06 14:49 | 51.73040 | 4.63084 | 2671 ft | 255 kts | 282° |
| 2026-05-06 14:49 | 51.73330 | 4.60261 | 2152 ft | 257 kts | 282° |
| 2026-05-06 14:50 | 51.73626 | 4.57511 | 2119 ft | 241 kts | 282° |
| 2026-05-06 14:50 | 51.73910 | 4.54884 | 2116 ft | 237 kts | 283° |
| 2026-05-06 14:50 | 51.74170 | 4.52227 | 2106 ft | 238 kts | 282° |
| 2026-05-06 14:50 | 51.74433 | 4.49601 | 2109 ft | 237 kts | 282° |
| 2026-05-06 14:51 | 51.74706 | 4.46963 | 2117 ft | 241 kts | 282° |
| 2026-05-06 14:51 | 51.74983 | 4.44306 | 2135 ft | 238 kts | 282° |
| 2026-05-06 14:51 | 51.75255 | 4.41682 | 2319 ft | 237 kts | 283° |
| 2026-05-06 14:51 | 51.75530 | 4.38993 | 1916 ft | 242 kts | 284° |
| 2026-05-06 14:52 | 51.75837 | 4.36437 | 2247 ft | 237 kts | 282° |
| 2026-05-06 14:52 | 51.75886 | 4.33829 | 2447 ft | 232 kts | 268° |
| 2026-05-06 14:52 | 51.75549 | 4.31356 | 2266 ft | 225 kts | 252° |
| 2026-05-06 14:52 | 51.75139 | 4.28929 | 2163 ft | 221 kts | 265° |
| 2026-05-06 14:53 | 51.75193 | 4.26524 | 2040 ft | 218 kts | 285° |
| 2026-05-06 14:53 | 51.75721 | 4.24280 | 1952 ft | 210 kts | 304° |
| 2026-05-06 14:53 | 51.76663 | 4.22508 | 1987 ft | 207 kts | 323° |
| 2026-05-06 14:53 | 51.77873 | 4.21276 | 2017 ft | 206 kts | 333° |
| 2026-05-06 14:54 | 51.79081 | 4.20170 | 1927 ft | 185 kts | 333° |
| 2026-05-06 14:54 | 51.80137 | 4.19158 | 2022 ft | 173 kts | 333° |
| 2026-05-06 14:54 | 51.81265 | 4.18465 | 2130 ft | 177 kts | 351° |
| 2026-05-06 14:54 | 51.82463 | 4.18499 | 2109 ft | 171 kts | 13° |
| 2026-05-06 14:55 | 51.83550 | 4.19279 | 2034 ft | 173 kts | 33° |
| 2026-05-06 14:55 | 51.84529 | 4.20394 | 2027 ft | 173 kts | 32° |
| 2026-05-06 14:55 | 51.85580 | 4.21293 | 2046 ft | 175 kts | 26° |
| 2026-05-06 14:55 | 51.86610 | 4.22292 | 2045 ft | 173 kts | 35° |
| 2026-05-06 14:56 | 51.87486 | 4.23609 | 2053 ft | 168 kts | 45° |
| 2026-05-06 14:56 | 51.88242 | 4.25091 | 2047 ft | 175 kts | 52° |
| 2026-05-06 14:56 | 51.88907 | 4.26743 | 2033 ft | 175 kts | 57° |
| 2026-05-06 14:56 | 51.89475 | 4.28478 | 2047 ft | 175 kts | 61° |
| 2026-05-06 14:57 | 51.90001 | 4.30121 | 2093 ft | 151 kts | 56° |
| 2026-05-06 14:57 | 51.90574 | 4.31443 | 1830 ft | 140 kts | 52° |
| 2026-05-06 14:57 | 51.91123 | 4.32767 | 1743 ft | 144 kts | 54° |
| 2026-05-06 14:57 | 51.91665 | 4.34103 | 1418 ft | 141 kts | 53° |
| 2026-05-06 14:58 | 51.92190 | 4.35378 | 1051 ft | 129 kts | 58° |
| 2026-05-06 14:58 | 51.92650 | 4.36568 | 919 ft | 122 kts | 51° |
| 2026-05-06 14:58 | 51.93138 | 4.37715 | 864 ft | 129 kts | 55° |
| 2026-05-06 14:58 | 51.93664 | 4.39026 | 643 ft | 142 kts | 55° |
| 2026-05-06 14:59 | 51.94185 | 4.40334 | 469 ft | 136 kts | 56° |
| 2026-05-06 14:59 | 51.94705 | 4.41603 | 264 ft | 135 kts | 57° |
| 2026-05-06 14:59 | 51.95221 | 4.42857 | 70 ft | 131 kts | 55° |
| 2026-05-06 14:59 | 51.95658 | 4.43949 | 91 ft | 92 kts | 54° |
| 2026-05-06 15:00 | 51.96072 | 4.44962 | 384 ft | 120 kts | 55° |
| 2026-05-06 15:00 | 51.96552 | 4.46225 | 1332 ft | 150 kts | 57° |
| 2026-05-06 15:00 | 51.97138 | 4.47880 | 2058 ft | 198 kts | 58° |
| 2026-05-06 15:00 | 51.97866 | 4.49930 | 2103 ft | 221 kts | 59° |
| 2026-05-06 15:01 | 51.98645 | 4.52065 | 2106 ft | 221 kts | 58° |
| 2026-05-06 15:01 | 51.99433 | 4.54204 | 2104 ft | 218 kts | 58° |
| 2026-05-06 15:01 | 52.00127 | 4.56405 | 2109 ft | 222 kts | 70° |
| 2026-05-06 15:01 | 52.00121 | 4.58973 | 2073 ft | 235 kts | 102° |
| 2026-05-06 15:02 | 51.99247 | 4.61231 | 1986 ft | 241 kts | 135° |
| 2026-05-06 15:02 | 51.97861 | 4.62705 | 2209 ft | 239 kts | 152° |
| 2026-05-06 15:02 | 51.96237 | 4.63531 | 2182 ft | 246 kts | 168° |
| 2026-05-06 15:02 | 51.94523 | 4.63581 | 2154 ft | 249 kts | 186° |
| 2026-05-06 15:03 | 51.92844 | 4.62866 | 2101 ft | 251 kts | 202° |
| 2026-05-06 15:03 | 51.91374 | 4.61449 | 2131 ft | 247 kts | 219° |
| 2026-05-06 15:03 | 51.90193 | 4.59440 | 2213 ft | 249 kts | 233° |
| 2026-05-06 15:03 | 51.89111 | 4.57235 | 2160 ft | 250 kts | 232° |
| 2026-05-06 15:04 | 51.88140 | 4.55176 | 2116 ft | 216 kts | 240° |
| 2026-05-06 15:04 | 51.87572 | 4.52992 | 2100 ft | 196 kts | 259° |
| 2026-05-06 15:04 | 51.87502 | 4.51038 | 2079 ft | 156 kts | 283° |
| 2026-05-06 15:04 | 51.87886 | 4.49446 | 2128 ft | 153 kts | 309° |
| 2026-05-06 15:05 | 51.88534 | 4.48107 | 2106 ft | 152 kts | 308° |
| 2026-05-06 15:05 | 51.88886 | 4.46478 | 2118 ft | 158 kts | 283° |
| 2026-05-06 15:05 | 51.88879 | 4.44675 | 2127 ft | 159 kts | 274° |
| 2026-05-06 15:05 | 51.88900 | 4.42889 | 2102 ft | 160 kts | 275° |
| 2026-05-06 15:06 | 51.88915 | 4.41095 | 2112 ft | 160 kts | 274° |
| 2026-05-06 15:06 | 51.88704 | 4.39334 | 2096 ft | 164 kts | 252° |
| 2026-05-06 15:06 | 51.88217 | 4.37673 | 2115 ft | 161 kts | 249° |
| 2026-05-06 15:06 | 51.88109 | 4.37263 | 2109 ft | 162 kts | 250° |
| 2026-05-06 15:07 | 51.87783 | 4.36042 | 2111 ft | 163 kts | 248° |
| 2026-05-06 15:07 | 51.87315 | 4.34335 | 2107 ft | 166 kts | 250° |
| 2026-05-06 15:07 | 51.87083 | 4.32588 | 2094 ft | 158 kts | 272° |
| 2026-05-06 15:07 | 51.87286 | 4.30879 | 2107 ft | 153 kts | 298° |
| 2026-05-06 15:08 | 51.87881 | 4.29505 | 2125 ft | 149 kts | 321° |
| 2026-05-06 15:08 | 51.88753 | 4.28662 | 2029 ft | 146 kts | 343° |
| 2026-05-06 15:08 | 51.89745 | 4.28526 | 1946 ft | 144 kts | 7° |
| 2026-05-06 15:08 | 51.90571 | 4.29291 | 1887 ft | 143 kts | 54° |
| 2026-05-06 15:09 | 51.90905 | 4.30764 | 1861 ft | 143 kts | 69° |
| 2026-05-06 15:09 | 51.91234 | 4.32314 | 1812 ft | 148 kts | 67° |
| 2026-05-06 15:09 | 51.91634 | 4.33824 | 1561 ft | 146 kts | 59° |
| 2026-05-06 15:09 | 51.91703 | 4.34027 | 1504 ft | 145 kts | 58° |
| 2026-05-06 15:10 | 51.92176 | 4.35347 | 1224 ft | 140 kts | 54° |
| 2026-05-06 15:10 | 51.92713 | 4.36648 | 1066 ft | 139 kts | 51° |
| 2026-05-06 15:10 | 51.93228 | 4.37940 | 934 ft | 138 kts | 56° |
| 2026-05-06 15:10 | 51.93763 | 4.39248 | 626 ft | 135 kts | 54° |
| 2026-05-06 15:11 | 51.94278 | 4.40519 | 472 ft | 130 kts | 56° |
| 2026-05-06 15:11 | 51.94768 | 4.41754 | 232 ft | 130 kts | 56° |
| 2026-05-06 15:11 | 51.95260 | 4.42958 | 50 ft | 129 kts | 57° |
| 2026-05-06 15:11 | 51.95697 | 4.44043 | 0 ft | 93 kts | 54° |
| 2026-05-06 15:12 | 51.95911 | 4.44647 | -2 ft | 31 kts | 89° |
| 2026-05-06 15:12 | 51.95844 | 4.44748 | -1 ft | 12 kts | 155° |
| 2026-05-06 15:12 | 51.95769 | 4.44706 | 0 ft | 14 kts | 232° |
| 2026-05-06 15:12 | 51.95709 | 4.44563 | 0 ft | 17 kts | 237° |
| 2026-05-06 15:13 | 51.95637 | 4.44383 | 0 ft | 21 kts | 237° |
| 2026-05-06 15:13 | 51.95549 | 4.44166 | 0 ft | 25 kts | 237° |
| 2026-05-06 15:13 | 51.95448 | 4.43913 | 0 ft | 28 kts | 237° |
| 2026-05-06 15:13 | 51.95342 | 4.43650 | 0 ft | 27 kts | 236° |
| 2026-05-06 15:14 | 51.95267 | 4.43465 | 0 ft | 14 kts | 227° |
| 2026-05-06 15:14 | 51.95193 | 4.43488 | 0 ft | 10 kts | 160° |
| 2026-05-06 15:14 | 51.95153 | 4.43460 | 0 ft | 3 kts | 232° |
| 2026-05-06 15:14 | 51.95154 | 4.43446 | 0 ft | 0 kts | 278° |
| 2026-05-06 15:15 | 51.95159 | 4.43440 | 0 ft | 1 kts | 320° |
| 2026-05-06 15:15 | 51.95180 | 4.43415 | 0 ft | 2 kts | 324° |
| 2026-05-06 15:15 | 51.95189 | 4.43405 | 0 ft | 0 kts | 326° |